< < Back
Terminal Aerodrome Forecast


Current Version              Previous Versions:   1  2  3  4  5  6  7  8  9  

Terminal Aerodrome Forecast

305
FTUS42 KILM 040535
TAFFLO
TAF
KFLO 040535Z 0406/0506 22008KT P6SM VCSH SCT050 BKN060 OVC080
     FM041100 29005KT P6SM VCSH SCT020
     FM041600 29010KT P6SM VCSH BKN050
     FM050000 28004KT P6SM VCSH BKN050=



Latest METAR

540
SAUS70 KWBC 050100 RRI
MTRFLO
METAR KFLO 050053Z 28006KT 10SM CLR 21/09 A2963 RMK AO2 SLP029
T02060094


USA.gov is the U.S. government's official web portal to all federal, state and local government web resources and services.